Lyndell, Pennsylvania
Current Conditions -  °F | °C
As of 2:15 AM on Saturday 25 Oct 2014 (Local Time) from KMQS Reporting Station
Clear Clear  
Wind Chill: 50°   Ceiling: Unl
Heat Index: 50°   Visibility: 10mi
Dew Point: 39°   Wind: 9mph
Humidity: 66%   Direction: 300°WNW
Pressure: 29.92"   Gusts: NA
Location:  40.06°N, 75.74°W
Report Text: KMQS 250615Z AUTO 30008KT 10SM CLR 10/04 A2992 RMK AO2
Loading
Personal Weather Stations






























Interactive Weather Map New forecast layout! Learn more

10-Day Weather Forecast

Advertisements
Track Severe Weather on mobile